Time;durP1;ratioP1;P1;durP2;ratioP2;P2;SDS_P1;SDS_P2;PMS_P1;PMS_P2;Temp;Humidity;BMP_temperature;BMP_pressure;BME280_temperature;BME280_humidity;BME280_pressure;Samples;Min_cycle;Max_cycle;Signal;HPM_P1;HPM_P2
2023/01/29 00:00:02;;;;;;;10.10;4.00;;;;;;;0.77;84.10;102172.84;5052567;28;20890;-72
2023/01/29 00:02:32;;;;;;;13.20;5.70;;;;;;;0.82;83.98;102170.41;5052879;28;20442;-71
2023/01/29 00:04:58;;;;;;;11.30;4.30;;;;;;;0.87;83.82;102175.97;5052777;28;20549;-71
2023/01/29 00:07:25;;;;;;;8.87;4.07;;;;;;;0.89;83.46;102171.28;5052737;28;20477;-72
2023/01/29 00:09:51;;;;;;;11.33;5.23;;;;;;;0.78;83.96;102175.31;5052364;28;20466;-71
2023/01/29 00:12:19;;;;;;;10.90;4.07;;;;;;;0.84;83.94;102174.53;5052643;28;20486;-71
2023/01/29 00:14:46;;;;;;;12.20;4.53;;;;;;;0.85;83.86;102181.50;5052679;28;20478;-69
2023/01/29 00:17:13;;;;;;;12.47;5.20;;;;;;;0.89;83.93;102179.28;5052570;28;20449;-66
2023/01/29 00:19:39;;;;;;;12.00;4.97;;;;;;;0.74;84.66;102166.88;5051886;28;20488;-71
2023/01/29 00:22:06;;;;;;;13.40;5.77;;;;;;;0.82;84.78;102165.06;5052618;28;20476;-71
2023/01/29 00:24:32;;;;;;;12.10;5.57;;;;;;;0.89;84.98;102164.09;5052277;28;20438;-70
2023/01/29 00:26:59;;;;;;;19.40;6.30;;;;;;;0.93;84.04;102161.81;5052627;28;20449;-70
2023/01/29 00:29:27;;;;;;;15.93;6.30;;;;;;;0.92;84.46;102165.53;5052546;28;20466;-69
2023/01/29 00:31:53;;;;;;;13.00;5.37;;;;;;;0.90;83.80;102160.41;5056145;28;20441;-70
2023/01/29 00:34:21;;;;;;;18.50;7.07;;;;;;;0.81;85.18;102156.25;5056077;28;20517;-70
2023/01/29 00:36:48;;;;;;;13.43;5.83;;;;;;;0.78;85.27;102148.63;5056063;28;20482;-70
2023/01/29 00:39:14;;;;;;;18.33;5.83;;;;;;;0.79;84.84;102152.13;5055697;28;20925;-70
2023/01/29 00:47:32;;;;;;;13.87;6.00;;;;;;;0.68;86.08;102133.00;5019692;28;20442;-70
2023/01/29 00:49:58;;;;;;;11.30;5.50;;;;;;;0.70;86.10;102136.28;5055850;28;20525;-70
2023/01/29 00:52:25;;;;;;;14.50;6.37;;;;;;;0.72;87.24;102139.59;5055732;28;20468;-70
2023/01/29 00:54:52;;;;;;;17.13;7.40;;;;;;;0.79;86.41;102138.78;5055734;28;20442;-70
2023/01/29 00:57:19;;;;;;;13.10;6.93;;;;;;;0.80;86.79;102141.28;5055409;28;20464;-70
2023/01/29 00:59:47;;;;;;;13.10;6.30;;;;;;;0.83;86.65;102142.72;5055559;28;20465;-71
2023/01/29 01:05:01;;;;;;;13.37;6.57;;;;;;;0.70;87.09;102144.28;5055464;28;20402;-70
2023/01/29 01:07:27;;;;;;;16.77;7.80;;;;;;;0.75;87.92;102152.53;5055360;28;20885;-69
2023/01/29 01:12:38;;;;;;;15.90;7.10;;;;;;;0.77;87.55;102149.66;5055173;28;20996;-70
2023/01/29 01:15:07;;;;;;;17.07;7.30;;;;;;;0.78;87.44;102153.16;5055281;28;20445;-70
2023/01/29 01:17:34;;;;;;;18.70;7.83;;;;;;;0.80;87.38;102146.59;5055219;28;20453;-70
2023/01/29 01:20:01;;;;;;;18.07;7.57;;;;;;;0.88;86.83;102148.25;5054790;28;20498;-71
2023/01/29 01:22:28;;;;;;;14.17;7.30;;;;;;;0.79;86.66;102147.59;5054962;28;20904;-70
2023/01/29 01:24:54;;;;;;;21.80;8.73;;;;;;;0.80;86.55;102148.44;5055017;28;20485;-72
2023/01/29 01:27:21;;;;;;;21.60;8.80;;;;;;;0.70;87.41;102152.28;5055029;28;20470;-72
2023/01/29 01:29:48;;;;;;;19.40;7.43;;;;;;;0.73;87.48;102138.56;5055030;28;20478;-71
2023/01/29 01:32:16;;;;;;;15.43;7.80;;;;;;;0.78;87.88;102131.81;5054760;28;20489;-72
2023/01/29 01:34:44;;;;;;;22.90;8.27;;;;;;;0.83;88.09;102132.03;5054867;28;21007;-72
2023/01/29 01:37:10;;;;;;;17.33;8.40;;;;;;;0.83;87.44;102129.38;5054836;28;20457;-72
2023/01/29 01:39:37;;;;;;;15.90;6.90;;;;;;;0.89;86.97;102141.94;5054996;28;20498;-72
2023/01/29 01:42:04;;;;;;;24.23;7.90;;;;;;;0.89;87.73;102144.59;5054117;28;20601;-73
2023/01/29 01:44:53;;;;;;;20.00;7.73;;;;;;;0.88;87.39;102146.41;5054524;28;21014;-72
2023/01/29 01:47:27;;;;;;;15.40;6.97;;;;;;;0.81;87.73;102148.25;5054499;28;20426;-72
2023/01/29 01:49:56;;;;;;;19.30;6.80;;;;;;;0.84;88.43;102145.19;5054670;28;20475;-73
2023/01/29 01:52:23;;;;;;;13.00;6.47;;;;;;;0.92;87.65;102136.19;5054701;28;20456;-72
2023/01/29 01:54:51;;;;;;;13.33;6.57;;;;;;;0.98;87.60;102133.56;5054483;28;20481;-71
2023/01/29 01:57:23;;;;;;;19.40;6.90;;;;;;;0.98;87.69;102138.06;5054481;28;20438;-71
2023/01/29 01:59:54;;;;;;;20.80;8.00;;;;;;;1.01;87.56;102127.81;5054491;28;20471;-71
2023/01/29 02:10:41;;;;;;;18.07;8.20;;;;;;;1.01;88.29;102105.66;5054153;28;20452;-70
2023/01/29 02:13:09;;;;;;;20.40;8.17;;;;;;;1.07;87.53;102110.19;5054138;28;20561;-72
2023/01/29 02:15:36;;;;;;;21.60;7.67;;;;;;;1.09;87.34;102110.81;5054060;28;20453;-71
2023/01/29 02:18:05;;;;;;;16.83;7.60;;;;;;;1.04;87.88;102110.59;5053951;28;20480;-72
2023/01/29 02:20:32;;;;;;;18.10;8.00;;;;;;;1.00;88.53;102104.00;5054054;28;20454;-71
2023/01/29 02:23:27;;;;;;;12.90;6.63;;;;;;;1.06;88.01;102108.53;5053894;28;20799;-69
2023/01/29 02:26:09;;;;;;;15.93;7.30;;;;;;;1.09;88.10;102108.13;5052969;28;20442;-71
2023/01/29 02:28:47;;;;;;;17.93;7.87;;;;;;;1.07;88.08;102110.19;5053851;28;20466;-71
2023/01/29 02:31:21;;;;;;;16.00;7.50;;;;;;;1.10;88.11;102109.78;5054058;28;20434;-70
2023/01/29 02:33:55;;;;;;;17.57;8.40;;;;;;;1.14;88.11;102110.22;5053244;28;20466;-71
2023/01/29 02:36:31;;;;;;;22.27;8.00;;;;;;;1.10;88.53;102101.78;5054070;28;20432;-71
2023/01/29 02:39:03;;;;;;;17.43;7.60;;;;;;;1.15;88.26;102096.69;5053657;28;20557;-70
2023/01/29 02:41:36;;;;;;;14.50;6.93;;;;;;;1.14;88.52;102105.69;5053709;28;20498;-71
2023/01/29 02:44:10;;;;;;;16.27;7.63;;;;;;;1.15;88.54;102104.69;5053748;28;20425;-71
2023/01/29 02:46:44;;;;;;;18.83;7.60;;;;;;;1.19;88.49;102099.75;5053797;28;20426;-70
2023/01/29 02:49:21;;;;;;;15.00;7.13;;;;;;;1.22;88.17;102097.50;5053312;28;20462;-70
2023/01/29 02:51:56;;;;;;;19.83;7.97;;;;;;;1.20;88.18;102098.75;5053541;28;20449;-71
2023/01/29 02:54:27;;;;;;;15.57;7.43;;;;;;;1.22;88.14;102097.50;5052805;28;20852;-70
2023/01/29 02:56:57;;;;;;;18.00;7.50;;;;;;;1.21;88.91;102098.53;5053230;28;20513;-70
2023/01/29 02:59:33;;;;;;;22.20;8.07;;;;;;;1.21;88.92;102090.53;5053091;28;20489;-70
2023/01/29 03:02:05;;;;;;;18.60;7.90;;;;;;;1.18;88.66;102087.44;5053168;28;20434;-70
2023/01/29 03:04:41;;;;;;;18.00;8.20;;;;;;;1.08;89.01;102095.00;5053387;28;20514;-70
2023/01/29 03:07:21;;;;;;;17.87;7.60;;;;;;;1.08;89.52;102093.16;5053455;28;20516;-70
2023/01/29 03:09:53;;;;;;;23.53;8.43;;;;;;;1.10;89.60;102095.63;5053255;28;20462;-70
2023/01/29 03:12:32;;;;;;;17.83;8.10;;;;;;;1.06;89.55;102087.19;5056090;28;20442;-67
2023/01/29 03:15:15;;;;;;;16.97;7.77;;;;;;;1.00;90.15;102088.00;5054691;28;20462;-69
2023/01/29 03:17:47;;;;;;;17.03;7.70;;;;;;;1.04;89.63;102086.59;5052918;28;20432;-69
2023/01/29 03:22:50;;;;;;;18.60;7.20;;;;;;;1.15;89.99;102088.69;5074492;22;20867;-69
2023/01/29 03:33:45;;;;;;;15.93;7.60;;;;;;;1.20;89.64;102078.22;5052690;28;20461;-67
2023/01/29 03:36:16;;;;;;;14.00;7.10;;;;;;;1.27;89.89;102071.03;5052607;28;20907;-67
2023/01/29 03:38:44;;;;;;;16.73;7.93;;;;;;;1.28;89.64;102069.19;5052855;28;20438;-67
2023/01/29 03:41:19;;;;;;;13.10;7.37;;;;;;;1.31;89.93;102057.28;5052772;28;20521;-67
2023/01/29 03:43:55;;;;;;;15.33;7.40;;;;;;;1.22;90.79;102037.97;5052507;28;20912;-66
2023/01/29 03:46:30;;;;;;;16.40;7.07;;;;;;;1.13;93.54;102034.69;5052871;28;20422;-67
2023/01/29 03:49:02;;;;;;;20.07;7.60;;;;;;;1.04;94.43;102041.22;5052796;28;20434;-67
2023/01/29 03:51:35;;;;;;;15.83;7.77;;;;;;;1.01;95.65;102042.44;5052702;28;20503;-66
2023/01/29 03:54:09;;;;;;;19.20;8.07;;;;;;;0.86;97.48;102028.47;5052661;28;20476;-67
2023/01/29 03:56:54;;;;;;;17.97;8.87;;;;;;;0.86;97.95;102023.13;5052689;28;20424;-67
2023/01/29 03:59:29;;;;;;;26.17;8.20;;;;;;;0.83;99.27;102017.34;5052754;28;20454;-67
2023/01/29 04:02:00;;;;;;;16.63;7.57;;;;;;;0.77;100.00;102013.66;5052573;28;20472;-67
2023/01/29 04:04:31;;;;;;;18.10;6.93;;;;;;;0.73;100.00;102002.56;5054088;28;20433;-67
2023/01/29 04:07:07;;;;;;;20.10;7.20;;;;;;;0.74;100.00;101998.06;5056440;28;20422;-67
2023/01/29 04:09:40;;;;;;;18.50;9.03;;;;;;;0.68;100.00;101999.69;5056424;28;20432;-67
2023/01/29 04:12:08;;;;;;;19.60;7.93;;;;;;;0.67;100.00;101982.03;5056325;28;20466;-67
2023/01/29 04:14:36;;;;;;;19.93;7.57;;;;;;;0.67;100.00;101981.22;5056203;28;20486;-67
2023/01/29 04:17:09;;;;;;;16.53;8.30;;;;;;;0.62;100.00;101980.97;5055908;28;21107;-67
2023/01/29 04:19:36;;;;;;;26.40;8.80;;;;;;;0.63;100.00;101979.97;5056221;28;20433;-66
2023/01/29 04:22:07;;;;;;;18.27;7.50;;;;;;;0.68;100.00;101983.69;5055716;28;20560;-66
2023/01/29 04:24:34;;;;;;;15.90;7.67;;;;;;;0.67;100.00;101982.03;5056076;28;20462;-67
2023/01/29 04:27:13;;;;;;;24.60;8.63;;;;;;;0.59;100.00;101974.22;5056036;28;20815;-67
2023/01/29 04:29:50;;;;;;;20.17;8.87;;;;;;;0.56;100.00;101965.81;5056057;28;20444;-67
2023/01/29 04:32:27;;;;;;;17.23;7.90;;;;;;;0.50;100.00;101959.44;5055929;28;20462;-67
2023/01/29 04:35:01;;;;;;;18.10;7.60;;;;;;;0.54;100.00;101955.34;5055861;28;20466;-67
2023/01/29 04:37:36;;;;;;;19.70;8.07;;;;;;;0.59;100.00;101968.06;5055884;28;20476;-68
2023/01/29 04:40:14;;;;;;;16.13;7.90;;;;;;;0.59;100.00;101968.91;5055818;28;20792;-67
2023/01/29 04:42:47;;;;;;;20.93;8.23;;;;;;;0.59;100.00;101974.22;5055698;28;20457;-67
2023/01/29 04:45:20;;;;;;;22.40;8.60;;;;;;;0.57;100.00;101976.25;5055754;28;20419;-68
2023/01/29 04:47:52;;;;;;;19.73;7.93;;;;;;;0.62;100.00;101984.50;5055474;28;20426;-67
2023/01/29 04:50:27;;;;;;;18.07;9.50;;;;;;;0.67;100.00;101979.38;5055566;28;20437;-67
2023/01/29 04:53:02;;;;;;;20.70;8.60;;;;;;;0.71;100.00;101963.81;5055568;28;20421;-67
2023/01/29 04:55:36;;;;;;;18.87;7.77;;;;;;;0.76;100.00;101966.69;5055467;28;20469;-67
2023/01/29 04:58:09;;;;;;;27.10;9.63;;;;;;;0.81;100.00;101979.41;5055439;28;20430;-68
2023/01/29 05:00:40;;;;;;;18.63;7.40;;;;;;;0.80;100.00;101978.59;5055381;28;20433;-67
2023/01/29 05:03:11;;;;;;;24.97;8.77;;;;;;;0.82;100.00;101981.06;5055122;28;20947;-67
2023/01/29 05:05:41;;;;;;;19.27;8.60;;;;;;;0.83;100.00;101967.50;5055333;28;20428;-67
2023/01/29 05:08:09;;;;;;;18.53;7.90;;;;;;;0.84;100.00;101982.50;5055259;28;20454;-67
2023/01/29 05:10:35;;;;;;;24.10;10.30;;;;;;;0.82;100.00;101981.06;5055125;28;20811;-67
2023/01/29 05:13:05;;;;;;;19.30;8.63;;;;;;;0.87;100.00;101978.59;5055193;28;20493;-67
2023/01/29 05:15:36;;;;;;;21.47;9.43;;;;;;;0.88;100.00;101966.91;5054288;28;20852;-67
2023/01/29 05:18:07;;;;;;;24.50;10.33;;;;;;;0.84;100.00;101966.50;5054805;28;20927;-67
2023/01/29 05:20:38;;;;;;;24.17;9.00;;;;;;;0.87;100.00;101968.75;5054813;28;20422;-68
2023/01/29 05:23:08;;;;;;;18.50;9.20;;;;;;;0.90;100.00;101971.03;5055004;28;20422;-67
2023/01/29 05:25:35;;;;;;;20.90;9.07;;;;;;;0.91;100.00;101967.31;5054691;28;20419;-67
2023/01/29 05:28:04;;;;;;;20.93;9.60;;;;;;;0.91;100.00;101971.84;5054901;28;20441;-67
2023/01/29 05:30:33;;;;;;;20.57;9.87;;;;;;;0.95;100.00;101967.75;5054832;28;20461;-67
2023/01/29 05:33:00;;;;;;;22.13;9.80;;;;;;;0.96;100.00;101978.19;5054539;28;20943;-67
2023/01/29 05:35:27;;;;;;;23.93;8.63;;;;;;;1.05;100.00;101978.84;5054704;28;20486;-67
2023/01/29 05:37:55;;;;;;;22.27;8.50;;;;;;;1.08;100.00;101977.63;5054672;28;20438;-67
2023/01/29 05:40:22;;;;;;;27.67;10.00;;;;;;;1.13;100.00;101988.50;5054590;28;20450;-67
2023/01/29 05:42:49;;;;;;;19.87;9.60;;;;;;;1.17;100.00;101979.06;5054628;28;20444;-67
2023/01/29 05:45:15;;;;;;;20.73;9.50;;;;;;;1.18;100.00;101978.84;5054593;28;20434;-67
2023/01/29 05:47:42;;;;;;;16.03;8.33;;;;;;;1.17;100.00;101977.22;5054518;28;20442;-67
2023/01/29 05:50:10;;;;;;;22.30;9.70;;;;;;;1.18;100.00;101980.69;5054499;28;20438;-67
2023/01/29 05:52:36;;;;;;;21.20;9.60;;;;;;;1.17;100.00;101979.06;5054381;28;20494;-67
2023/01/29 05:55:05;;;;;;;29.50;9.20;;;;;;;1.21;100.00;101989.13;5054313;28;20597;-67
2023/01/29 05:57:32;;;;;;;20.87;8.97;;;;;;;1.19;100.00;101991.16;5054384;28;20491;-67
2023/01/29 05:59:58;;;;;;;24.93;10.40;;;;;;;1.19;100.00;101988.50;5054347;28;20446;-68
2023/01/29 06:02:25;;;;;;;21.30;9.70;;;;;;;1.22;100.00;101995.28;5054331;28;20488;-67
2023/01/29 06:04:52;;;;;;;22.70;9.63;;;;;;;1.27;100.00;102001.63;5054068;28;20529;-68
2023/01/29 06:07:18;;;;;;;22.10;10.17;;;;;;;1.29;100.00;101997.97;5054149;28;20528;-68
2023/01/29 06:09:45;;;;;;;23.20;9.10;;;;;;;1.29;100.00;102003.31;5054040;28;20442;-68
2023/01/29 06:12:13;;;;;;;24.63;10.13;;;;;;;1.32;100.00;102003.69;5054060;28;20553;-67
2023/01/29 06:14:40;;;;;;;30.07;10.20;;;;;;;1.25;99.97;102011.72;5053615;28;20578;-68
2023/01/29 06:17:06;;;;;;;25.27;9.77;;;;;;;1.22;100.00;102011.28;5053940;28;20438;-68
2023/01/29 06:19:33;;;;;;;26.83;10.13;;;;;;;1.22;100.00;102011.28;5053900;28;20563;-67
2023/01/29 06:21:59;;;;;;;22.30;10.00;;;;;;;1.21;100.00;101997.13;5053360;28;20557;-68
2023/01/29 06:24:26;;;;;;;22.07;9.73;;;;;;;1.23;100.00;101992.41;5053838;28;20444;-67
2023/01/29 06:26:52;;;;;;;23.27;9.20;;;;;;;1.26;100.00;101994.66;5053416;28;20966;-68
2023/01/29 06:29:20;;;;;;;21.67;9.57;;;;;;;1.27;100.00;101990.16;5053749;28;20570;-68
2023/01/29 06:31:47;;;;;;;22.93;9.40;;;;;;;1.27;100.00;101992.81;5053619;28;20461;-68
2023/01/29 06:34:14;;;;;;;22.27;10.47;;;;;;;1.27;100.00;101995.47;5053577;28;20486;-68
2023/01/29 06:36:40;;;;;;;27.23;9.13;;;;;;;1.20;100.00;101992.81;5053317;28;20940;-68
2023/01/29 06:39:07;;;;;;;30.77;10.63;;;;;;;1.23;100.00;101989.72;5053558;28;20442;-68
2023/01/29 06:41:34;;;;;;;26.93;10.10;;;;;;;1.31;100.00;101990.56;5053451;28;20490;-67
2023/01/29 06:44:01;;;;;;;21.77;9.50;;;;;;;1.31;100.00;101998.56;5053500;28;20541;-67
2023/01/29 06:46:29;;;;;;;25.57;10.97;;;;;;;1.32;100.00;101990.34;5053091;28;20446;-70
2023/01/29 06:48:58;;;;;;;21.40;9.30;;;;;;;1.30;100.00;102002.28;5053114;28;20442;-69
2023/01/29 06:51:24;;;;;;;20.13;8.70;;;;;;;1.26;100.00;102009.88;5053303;28;20904;-69
2023/01/29 06:53:53;;;;;;;20.73;8.67;;;;;;;1.30;100.00;102012.94;5053328;28;20438;-68
2023/01/29 06:56:19;;;;;;;20.33;8.63;;;;;;;1.32;100.00;102003.69;5053204;28;20486;-68
2023/01/29 06:58:47;;;;;;;21.57;9.50;;;;;;;1.31;100.00;102003.91;5052932;28;20446;-69
2023/01/29 07:01:14;;;;;;;21.33;9.17;;;;;;;1.34;100.00;102004.34;5052892;28;20983;-67
2023/01/29 07:03:42;;;;;;;28.00;9.77;;;;;;;1.39;100.00;102001.03;5053184;28;20438;-67
2023/01/29 07:06:09;;;;;;;22.03;10.67;;;;;;;1.40;100.00;101997.34;5052861;28;20496;-67
2023/01/29 07:08:36;;;;;;;20.23;8.70;;;;;;;1.39;100.00;101995.72;5053160;28;20493;-67
2023/01/29 07:11:05;;;;;;;23.47;10.37;;;;;;;1.33;100.00;101997.34;5053106;28;20817;-68
2023/01/29 07:13:32;;;;;;;18.60;8.60;;;;;;;1.40;100.00;101987.47;5053161;28;20845;-70
2023/01/29 07:15:59;;;;;;;23.80;10.97;;;;;;;1.35;100.00;101976.59;5052708;28;21017;-67
2023/01/29 07:18:26;;;;;;;30.60;11.80;;;;;;;1.39;100.00;101980.50;5053016;28;20446;-68
2023/01/29 07:20:54;;;;;;;23.70;9.67;;;;;;;1.42;100.00;101998.78;5052490;28;20484;-69
2023/01/29 07:23:20;;;;;;;21.73;9.57;;;;;;;1.39;100.00;101993.84;5053381;28;20454;-69
2023/01/29 07:25:48;;;;;;;23.67;9.50;;;;;;;1.42;100.00;102000.66;5052936;28;20438;-68
2023/01/29 07:28:15;;;;;;;22.70;10.00;;;;;;;1.40;100.00;102005.34;5052643;28;20457;-68
2023/01/29 07:30:41;;;;;;;24.17;9.47;;;;;;;1.44;100.00;102003.91;5052551;28;20564;-68
2023/01/29 07:33:10;;;;;;;26.47;10.10;;;;;;;1.42;100.00;102001.47;5052923;28;20473;-68
2023/01/29 07:35:37;;;;;;;28.20;10.93;;;;;;;1.36;100.00;102007.59;5052777;28;20490;-68
2023/01/29 07:38:06;;;;;;;28.37;9.60;;;;;;;1.36;100.00;102012.94;5052709;28;20552;-69
2023/01/29 07:40:33;;;;;;;28.37;11.60;;;;;;;1.42;100.00;102000.66;5055817;28;20449;-68
2023/01/29 07:43:00;;;;;;;23.83;11.30;;;;;;;1.42;100.00;101981.97;5056912;28;20521;-68
2023/01/29 07:45:27;;;;;;;23.47;11.43;;;;;;;1.43;100.00;101981.75;5056820;28;20538;-68
2023/01/29 07:47:54;;;;;;;24.93;11.30;;;;;;;1.47;100.00;101966.13;5056822;28;20449;-67
2023/01/29 07:50:21;;;;;;;29.77;11.30;;;;;;;1.47;100.00;101960.81;5056662;28;20438;-68
2023/01/29 07:52:48;;;;;;;26.03;10.30;;;;;;;1.43;100.00;101959.56;5056680;28;20474;-69
2023/01/29 07:55:16;;;;;;;25.07;9.90;;;;;;;1.45;100.00;101957.50;5056340;28;20514;-69
2023/01/29 07:57:43;;;;;;;24.07;8.43;;;;;;;1.45;100.00;101970.84;5056646;28;20442;-69
2023/01/29 08:00:11;;;;;;;25.70;9.90;;;;;;;1.43;100.00;101972.91;5056637;28;20576;-69
2023/01/29 08:02:38;;;;;;;25.13;10.70;;;;;;;1.49;100.00;101964.88;5056262;28;20458;-69
2023/01/29 08:05:05;;;;;;;26.50;10.07;;;;;;;1.56;100.00;101961.41;5056426;28;20453;-69
2023/01/29 08:07:31;;;;;;;26.07;10.50;;;;;;;1.59;100.00;101951.13;5056121;28;20448;-69
2023/01/29 08:09:58;;;;;;;27.23;10.70;;;;;;;1.58;100.00;101948.66;5056123;28;21018;-69
2023/01/29 08:12:26;;;;;;;25.27;9.70;;;;;;;1.54;100.00;101947.44;5056150;28;20494;-69
2023/01/29 08:14:52;;;;;;;22.87;10.67;;;;;;;1.55;100.00;101959.75;5056198;28;20569;-69
2023/01/29 08:17:19;;;;;;;32.70;11.00;;;;;;;1.48;100.00;101957.91;5056284;28;20448;-70
2023/01/29 08:19:46;;;;;;;25.77;11.87;;;;;;;1.49;100.00;101948.88;5056112;28;20442;-71
2023/01/29 08:22:14;;;;;;;23.73;10.30;;;;;;;1.54;100.00;101944.75;5056281;28;20478;-71
2023/01/29 08:24:40;;;;;;;29.90;11.50;;;;;;;1.60;100.00;101958.13;5056170;28;20445;-69
2023/01/29 08:27:07;;;;;;;22.47;9.17;;;;;;;1.68;100.00;101957.06;5056040;28;20437;-69
2023/01/29 08:29:35;;;;;;;24.97;10.07;;;;;;;1.74;100.00;101956.25;5055994;28;20446;-67
2023/01/29 08:32:01;;;;;;;22.67;8.70;;;;;;;1.71;100.00;101946.78;5055851;28;20468;-71
2023/01/29 08:34:28;;;;;;;27.70;10.83;;;;;;;1.71;100.00;101951.31;5055589;28;20537;-68
2023/01/29 08:36:55;;;;;;;23.30;10.37;;;;;;;1.75;100.00;101958.69;5055702;28;20577;-68
2023/01/29 08:39:21;;;;;;;25.93;10.80;;;;;;;1.83;100.00;101964.88;5055514;28;21011;-68
2023/01/29 08:41:48;;;;;;;21.07;9.13;;;;;;;1.85;100.00;101954.78;5055770;28;20481;-68
2023/01/29 08:44:14;;;;;;;22.47;10.43;;;;;;;1.88;100.00;101949.03;5055354;28;20446;-68
2023/01/29 08:46:42;;;;;;;26.27;10.97;;;;;;;1.89;100.00;101950.66;5055720;28;20438;-68
2023/01/29 08:49:09;;;;;;;23.80;10.33;;;;;;;1.84;100.00;101943.28;5055267;28;20891;-68
2023/01/29 08:51:35;;;;;;;24.17;10.27;;;;;;;1.89;100.00;101945.31;5054338;28;20458;-67
2023/01/29 08:54:02;;;;;;;28.33;10.50;;;;;;;1.95;100.00;101949.84;5055217;28;20532;-68
2023/01/29 08:56:28;;;;;;;20.30;10.27;;;;;;;1.94;100.00;101950.84;5055177;28;20577;-67
2023/01/29 08:58:55;;;;;;;26.83;11.23;;;;;;;2.00;100.00;101947.34;5055488;28;20837;-68
2023/01/29 09:01:21;;;;;;;23.80;9.87;;;;;;;2.11;100.00;101949.34;5055343;28;20545;-68
2023/01/29 09:03:51;;;;;;;26.63;11.87;;;;;;;2.15;100.00;101955.94;5055396;28;20444;-68
2023/01/29 09:06:17;;;;;;;24.73;10.10;;;;;;;2.22;100.00;101940.69;5055029;28;20450;-68
2023/01/29 09:08:44;;;;;;;25.77;11.73;;;;;;;2.16;100.00;101932.69;5055246;28;20524;-68
2023/01/29 09:11:11;;;;;;;22.60;10.37;;;;;;;2.18;100.00;101935.97;5054941;28;20873;-70
2023/01/29 09:13:37;;;;;;;24.20;11.17;;;;;;;2.22;100.00;101948.72;5055172;28;20435;-67
2023/01/29 09:16:05;;;;;;;20.93;9.50;;;;;;;2.31;100.00;101951.16;5034149;28;21011;-69
2023/01/29 09:18:31;;;;;;;29.33;10.93;;;;;;;2.39;100.00;101941.03;5034954;28;20439;-69
2023/01/29 09:21:01;;;;;;;23.20;10.10;;;;;;;2.43;100.00;101949.44;5034541;28;20482;-68
2023/01/29 09:23:28;;;;;;;25.10;10.33;;;;;;;2.39;100.00;101941.03;5035011;28;20459;-68
2023/01/29 09:25:54;;;;;;;20.57;9.77;;;;;;;2.43;100.00;101946.75;5064079;22;20502;-67
2023/01/29 09:28:21;;;;;;;19.57;9.00;;;;;;;2.47;100.00;101938.09;5054994;28;20533;-68
2023/01/29 09:30:47;;;;;;;23.40;9.30;;;;;;;2.45;100.00;101929.47;5073189;28;20533;-67
2023/01/29 09:33:14;;;;;;;30.30;10.23;;;;;;;2.43;100.00;101928.03;5074972;28;20441;-68
2023/01/29 09:35:41;;;;;;;25.50;9.60;;;;;;;2.40;100.00;101928.50;5071802;28;20490;-68
2023/01/29 09:38:10;;;;;;;25.10;8.67;;;;;;;2.42;100.00;101918.38;5054747;28;20544;-68
2023/01/29 09:40:50;;;;;;;28.23;10.47;;;;;;;2.52;100.00;101916.06;5054817;28;20442;-68
2023/01/29 09:43:20;;;;;;;24.50;10.30;;;;;;;2.57;100.00;101920.75;5054114;28;20504;-70
2023/01/29 09:45:54;;;;;;;20.60;8.47;;;;;;;2.72;100.00;101919.44;5046066;28;20495;-66
2023/01/29 09:48:26;;;;;;;23.93;9.23;;;;;;;2.74;100.00;101911.19;5037131;28;20441;-69
2023/01/29 09:50:55;;;;;;;24.97;10.40;;;;;;;2.79;100.00;101898.00;5034475;28;20901;-68
2023/01/29 09:53:29;;;;;;;22.20;9.70;;;;;;;2.90;100.00;101901.84;5034642;28;20431;-68
2023/01/29 09:56:01;;;;;;;23.97;9.70;;;;;;;2.95;99.80;101893.97;5037610;28;20483;-67
2023/01/29 09:58:31;;;;;;;27.73;10.23;;;;;;;2.98;99.13;101899.72;5041845;28;20450;-69
2023/01/29 10:01:06;;;;;;;19.67;8.03;;;;;;;2.94;97.79;101889.66;5034517;28;20462;-68
2023/01/29 10:04:02;;;;;;;25.17;9.50;;;;;;;2.77;98.71;101886.69;5014443;28;20518;-68
2023/01/29 10:06:43;;;;;;;22.90;9.30;;;;;;;2.69;98.90;101885.09;5012865;28;20556;-68
2023/01/29 10:09:40;;;;;;;21.60;9.17;;;;;;;2.71;99.07;101890.25;5014734;28;20435;-68
2023/01/29 10:12:21;;;;;;;17.60;8.20;;;;;;;2.75;98.78;101886.91;5014609;28;20436;-69
2023/01/29 10:14:57;;;;;;;19.17;7.50;;;;;;;2.70;98.88;101880.56;5038098;28;20434;-68
2023/01/29 10:17:39;;;;;;;17.70;6.93;;;;;;;2.67;99.04;101873.81;5053826;28;20492;-68
2023/01/29 10:20:21;;;;;;;18.47;8.10;;;;;;;2.85;99.45;101881.09;5053731;28;20900;-70
2023/01/29 10:23:03;;;;;;;19.30;8.43;;;;;;;2.98;99.09;101880.16;5053750;28;20900;-68
2023/01/29 10:25:36;;;;;;;23.80;7.60;;;;;;;3.04;97.23;101890.81;5053721;28;20462;-69
2023/01/29 10:28:03;;;;;;;26.20;9.60;;;;;;;3.14;96.75;101897.50;5053847;28;20853;-68
2023/01/29 10:30:33;;;;;;;16.97;7.60;;;;;;;3.22;96.92;101895.38;5053883;28;20470;-69
2023/01/29 10:33:02;;;;;;;21.47;7.47;;;;;;;3.42;95.85;101889.03;5053591;28;20424;-70
2023/01/29 10:35:33;;;;;;;19.83;7.80;;;;;;;3.41;94.62;101885.56;5054024;28;20912;-68
2023/01/29 10:38:15;;;;;;;22.23;8.90;;;;;;;3.56;94.98;101885.19;5053415;28;20445;-68
2023/01/29 10:40:49;;;;;;;19.40;8.17;;;;;;;3.68;94.74;101880.75;5053552;28;20818;-69
2023/01/29 10:43:22;;;;;;;17.10;7.50;;;;;;;3.74;92.52;101882.50;5053798;28;20430;-69
2023/01/29 10:45:59;;;;;;;19.80;8.10;;;;;;;3.66;92.31;101874.75;5053669;28;20470;-69
2023/01/29 10:48:40;;;;;;;20.93;8.50;;;;;;;3.75;93.22;101856.53;5053365;28;20465;-69
2023/01/29 10:51:21;;;;;;;19.63;7.83;;;;;;;3.83;92.36;101861.59;5053526;28;20421;-69
2023/01/29 10:53:58;;;;;;;17.77;7.90;;;;;;;3.93;92.23;101853.03;5053518;28;20461;-70
2023/01/29 10:56:40;;;;;;;19.63;6.77;;;;;;;4.01;90.99;101845.50;5053359;28;20573;-69
2023/01/29 10:59:26;;;;;;;21.10;7.50;;;;;;;4.02;90.03;101840.94;5053460;28;20514;-69
2023/01/29 11:01:57;;;;;;;16.43;6.80;;;;;;;4.12;89.32;101832.34;5053648;28;20430;-69
2023/01/29 11:04:25;;;;;;;22.50;8.20;;;;;;;4.13;89.03;101829.47;5053473;28;20533;-69
2023/01/29 11:06:52;;;;;;;20.80;7.00;;;;;;;4.19;87.66;101825.84;5052940;28;20464;-69
2023/01/29 11:09:28;;;;;;;13.37;5.60;;;;;;;4.24;88.72;101826.00;5052972;28;20533;-69
2023/01/29 11:12:00;;;;;;;19.20;7.07;;;;;;;4.26;87.85;101821.25;5053280;28;20422;-69
2023/01/29 11:14:31;;;;;;;17.87;7.17;;;;;;;4.09;86.98;101814.88;5052371;28;20506;-69
2023/01/29 11:16:59;;;;;;;18.03;6.33;;;;;;;4.04;88.10;101804.03;5053091;28;20512;-69
2023/01/29 11:19:37;;;;;;;18.27;7.00;;;;;;;3.95;89.11;101805.38;5053152;28;20434;-70
2023/01/29 11:22:05;;;;;;;18.17;7.00;;;;;;;4.04;88.55;101807.50;5053232;28;20445;-69
2023/01/29 11:24:31;;;;;;;15.00;6.10;;;;;;;4.09;87.60;101809.50;5052957;28;20500;-69
2023/01/29 11:27:00;;;;;;;14.57;6.13;;;;;;;4.20;87.24;101795.31;5052802;28;20557;-70
2023/01/29 11:29:34;;;;;;;18.77;7.53;;;;;;;4.24;86.92;101795.69;5052806;28;20474;-69
2023/01/29 11:32:04;;;;;;;18.20;6.20;;;;;;;4.20;87.93;101792.63;5053110;28;20790;-69
2023/01/29 11:34:31;;;;;;;13.83;5.33;;;;;;;4.19;87.88;101782.97;5053090;28;20469;-69
2023/01/29 11:36:59;;;;;;;19.20;7.40;;;;;;;4.36;87.92;101785.81;5052852;28;20505;-70
2023/01/29 11:39:27;;;;;;;17.23;6.10;;;;;;;4.19;87.71;101785.63;5052964;28;20533;-69
2023/01/29 11:41:57;;;;;;;15.10;7.30;;;;;;;4.37;86.53;101775.91;5053207;28;20446;-69
2023/01/29 11:44:31;;;;;;;13.10;6.30;;;;;;;4.35;85.47;101780.69;5053100;28;20439;-68
2023/01/29 11:47:10;;;;;;;21.10;8.43;;;;;;;4.42;85.79;101774.16;5052665;28;20520;-69
2023/01/29 11:49:38;;;;;;;16.63;7.00;;;;;;;4.38;85.67;101774.84;5053248;28;20426;-69
2023/01/29 11:52:07;;;;;;;15.80;5.90;;;;;;;4.27;86.22;101763.88;5052719;28;20440;-70
2023/01/29 11:54:40;;;;;;;17.03;6.70;;;;;;;4.46;85.68;101756.53;5052723;28;20962;-70
2023/01/29 11:57:19;;;;;;;13.27;5.73;;;;;;;4.59;86.27;101760.88;5052384;28;20858;-69
2023/01/29 11:59:50;;;;;;;15.90;5.90;;;;;;;4.70;85.55;101754.72;5052760;28;20899;-70
2023/01/29 12:02:26;;;;;;;19.10;6.83;;;;;;;4.76;84.97;101756.47;5052794;28;20429;-70